createdAt,value
2023-08-24T00:00:33.451Z,18.78
2023-08-24T00:03:22.524Z,18.77
2023-08-24T00:05:50.415Z,18.77
2023-08-24T00:08:18.318Z,18.78
2023-08-24T00:10:49.019Z,18.79
2023-08-24T00:13:16.752Z,18.79
2023-08-24T00:15:46.167Z,18.79
2023-08-24T00:18:14.131Z,18.79
2023-08-24T00:20:42.587Z,18.79
2023-08-24T00:23:10.157Z,18.79
2023-08-24T00:25:37.903Z,18.79
2023-08-24T00:28:06.097Z,18.78
2023-08-24T00:30:33.848Z,18.77
2023-08-24T00:33:01.495Z,18.76
2023-08-24T00:35:29.255Z,18.75
2023-08-24T00:37:56.837Z,18.76
2023-08-24T00:40:26.074Z,18.76
2023-08-24T00:42:54.573Z,18.78
2023-08-24T00:45:22.437Z,18.81
2023-08-24T00:47:51.124Z,18.86
2023-08-24T00:50:20.497Z,18.89
2023-08-24T00:52:50.460Z,18.92
2023-08-24T00:55:18.460Z,18.94
2023-08-24T00:57:46.160Z,18.92
2023-08-24T01:00:14.724Z,18.91
2023-08-24T01:02:42.561Z,18.88
2023-08-24T01:05:10.391Z,18.86
2023-08-24T01:07:40.783Z,18.85
2023-08-24T01:10:11.591Z,18.84
2023-08-24T01:12:58.295Z,18.83
2023-08-24T01:15:52.897Z,18.81
2023-08-24T01:18:23.735Z,18.80
2023-08-24T01:20:55.810Z,18.79
2023-08-24T01:23:38.524Z,18.78
2023-08-24T01:26:18.960Z,18.76
2023-08-24T01:28:47.736Z,18.74
2023-08-24T01:31:19.799Z,18.71
2023-08-24T01:33:50.017Z,18.68
2023-08-24T01:36:18.064Z,18.63
2023-08-24T01:38:54.894Z,18.59
2023-08-24T01:41:39.603Z,18.57
2023-08-24T01:44:09.882Z,18.51
2023-08-24T01:46:38.805Z,18.46
2023-08-24T01:49:09.446Z,18.42
2023-08-24T01:51:37.498Z,18.39
2023-08-24T01:54:05.749Z,18.33
2023-08-24T01:56:33.410Z,18.25
2023-08-24T01:59:01.091Z,18.17
2023-08-24T02:01:28.832Z,18.12
2023-08-24T02:03:57.521Z,18.07
2023-08-24T02:06:25.626Z,18.04
2023-08-24T02:08:53.405Z,18.02
2023-08-24T02:11:21.048Z,17.99
2023-08-24T02:13:48.608Z,17.99
2023-08-24T02:16:16.700Z,17.99
2023-08-24T02:18:44.379Z,17.97
2023-08-24T02:21:16.143Z,17.93
2023-08-24T02:23:43.829Z,17.88
2023-08-24T02:26:11.444Z,17.84
2023-08-24T02:28:39.935Z,17.84
2023-08-24T02:31:07.657Z,17.82
2023-08-24T02:33:36.352Z,17.79
2023-08-24T02:36:05.268Z,17.78
2023-08-24T02:38:32.862Z,17.76
2023-08-24T02:41:04.229Z,17.75
2023-08-24T02:43:32.566Z,17.73
2023-08-24T02:46:05.549Z,17.69
2023-08-24T02:48:33.712Z,17.66
2023-08-24T02:51:05.700Z,17.58
2023-08-24T02:53:33.571Z,17.54
2023-08-24T02:56:02.602Z,17.52
2023-08-24T02:58:31.044Z,17.50
2023-08-24T03:00:58.689Z,17.47
2023-08-24T03:03:26.538Z,17.46
2023-08-24T03:05:54.360Z,17.45
2023-08-24T03:08:22.095Z,17.45
2023-08-24T03:10:49.879Z,17.44
2023-08-24T03:13:18.045Z,17.42
2023-08-24T03:15:45.930Z,17.39
2023-08-24T03:18:15.994Z,17.38
2023-08-24T03:20:46.138Z,17.41
2023-08-24T03:23:16.373Z,17.42
2023-08-24T03:25:44.879Z,17.43
2023-08-24T03:28:12.821Z,17.45
2023-08-24T03:30:47.451Z,17.42
2023-08-24T03:33:15.304Z,17.40
2023-08-24T03:35:43.724Z,17.39
2023-08-24T03:38:11.680Z,17.36
2023-08-24T03:40:39.346Z,17.32
2023-08-24T03:43:06.986Z,17.35
2023-08-24T03:45:34.613Z,17.38
2023-08-24T03:48:02.381Z,17.41
2023-08-24T03:50:30.125Z,17.44
2023-08-24T03:52:57.963Z,17.44
2023-08-24T03:55:25.760Z,17.45
2023-08-24T03:57:55.334Z,17.49
2023-08-24T04:00:27.256Z,17.52
2023-08-24T04:02:55.315Z,17.51
2023-08-24T04:05:25.836Z,17.50
2023-08-24T04:07:54.492Z,17.48
2023-08-24T04:10:22.303Z,17.45
2023-08-24T04:12:50.078Z,17.45
2023-08-24T04:15:17.646Z,17.44
2023-08-24T04:17:45.565Z,17.42
2023-08-24T04:20:13.365Z,17.41
2023-08-24T04:22:41.234Z,17.41
2023-08-24T04:25:09.543Z,17.44
2023-08-24T04:27:38.217Z,17.48
2023-08-24T04:30:06.876Z,17.56
2023-08-24T04:32:34.758Z,17.63
2023-08-24T04:35:02.356Z,17.67
2023-08-24T04:37:30.108Z,17.72
2023-08-24T04:39:57.675Z,17.74
2023-08-24T04:42:25.970Z,17.74
2023-08-24T04:44:53.588Z,17.77
2023-08-24T04:47:21.242Z,17.79
2023-08-24T04:49:48.886Z,17.80
2023-08-24T04:52:16.575Z,17.83
2023-08-24T04:54:44.145Z,17.90
2023-08-24T04:57:11.825Z,17.98
2023-08-24T04:59:39.555Z,18.06
2023-08-24T05:02:07.434Z,18.11
2023-08-24T05:04:35.158Z,18.14
2023-08-24T05:07:02.882Z,18.18
2023-08-24T05:09:30.540Z,18.25
2023-08-24T05:11:58.172Z,18.32
2023-08-24T05:14:25.784Z,18.38
2023-08-24T05:16:53.460Z,18.46
2023-08-24T05:19:21.187Z,18.46
2023-08-24T05:21:48.849Z,18.47
2023-08-24T05:24:16.406Z,18.46
2023-08-24T05:26:44.905Z,18.47
2023-08-24T05:29:26.437Z,18.47
2023-08-24T05:31:57.395Z,18.43
2023-08-24T05:34:25.745Z,18.38
2023-08-24T05:36:54.403Z,18.35
2023-08-24T05:39:22.021Z,18.36
2023-08-24T05:42:22.628Z,18.40
2023-08-24T05:44:51.347Z,18.48
2023-08-24T05:47:19.081Z,18.54
2023-08-24T05:49:46.738Z,18.58
2023-08-24T05:52:14.361Z,18.60
2023-08-24T05:54:42.044Z,18.60
2023-08-24T05:57:09.654Z,18.60
2023-08-24T05:59:37.333Z,18.60
2023-08-24T06:02:05.056Z,18.58
2023-08-24T06:04:32.973Z,18.57
2023-08-24T06:07:01.103Z,18.61
2023-08-24T06:09:28.803Z,18.69
2023-08-24T06:11:56.510Z,18.73
2023-08-24T06:14:24.072Z,18.75
2023-08-24T06:16:54.187Z,18.78
2023-08-24T06:19:22.227Z,18.85
2023-08-24T06:21:50.030Z,18.88
2023-08-24T06:24:17.749Z,18.90
2023-08-24T06:26:45.314Z,18.94
2023-08-24T06:29:13.262Z,19.01
2023-08-24T06:31:40.961Z,19.08
2023-08-24T06:34:10.970Z,19.16
2023-08-24T06:36:38.558Z,19.25
2023-08-24T06:39:06.640Z,19.31
2023-08-24T06:41:36.163Z,19.35
2023-08-24T06:44:05.427Z,19.42
2023-08-24T06:46:33.147Z,19.52
2023-08-24T06:49:00.790Z,19.58
2023-08-24T06:51:32.211Z,19.63
2023-08-24T06:53:59.850Z,19.70
2023-08-24T06:56:27.490Z,19.74
2023-08-24T06:58:55.103Z,19.76
2023-08-24T07:01:22.945Z,19.78
2023-08-24T07:03:50.634Z,19.80
2023-08-24T07:06:18.394Z,19.85
2023-08-24T07:08:48.304Z,19.87
2023-08-24T07:11:16.082Z,19.85
2023-08-24T07:13:43.799Z,19.85
2023-08-24T07:16:11.442Z,19.89
2023-08-24T07:18:39.085Z,19.92
2023-08-24T07:21:06.690Z,19.93
2023-08-24T07:23:34.681Z,19.96
2023-08-24T07:26:02.320Z,20.03
2023-08-24T07:28:30.943Z,20.11
2023-08-24T07:30:58.794Z,20.18
2023-08-24T07:33:26.569Z,20.27
2023-08-24T07:35:54.196Z,20.37
2023-08-24T07:38:22.267Z,20.48
2023-08-24T07:40:50.251Z,20.63
2023-08-24T07:43:17.969Z,20.78
2023-08-24T07:45:45.711Z,20.92
2023-08-24T07:48:13.719Z,21.07
2023-08-24T07:50:41.450Z,21.14
2023-08-24T07:53:09.875Z,21.17
2023-08-24T07:55:37.538Z,21.20
2023-08-24T07:58:05.101Z,21.21
2023-08-24T08:00:32.836Z,21.26
2023-08-24T08:03:00.535Z,21.34
2023-08-24T08:05:28.536Z,21.39
2023-08-24T08:07:56.231Z,21.43
2023-08-24T08:10:23.867Z,21.49
2023-08-24T08:12:51.551Z,21.44
2023-08-24T08:15:19.316Z,21.39
2023-08-24T08:17:47.155Z,21.35
2023-08-24T08:20:15.360Z,21.33
2023-08-24T08:22:42.908Z,21.34
2023-08-24T08:25:10.538Z,21.37
2023-08-24T08:27:38.502Z,21.40
2023-08-24T08:30:07.103Z,21.42
2023-08-24T08:32:34.744Z,21.46
2023-08-24T08:35:05.075Z,21.49
2023-08-24T08:37:36.982Z,21.55
2023-08-24T08:40:08.272Z,21.64
2023-08-24T08:42:36.913Z,21.71
2023-08-24T08:45:10.519Z,21.75
2023-08-24T08:47:39.365Z,21.84
2023-08-24T08:50:07.578Z,21.96
2023-08-24T08:52:35.275Z,22.15
2023-08-24T08:55:08.100Z,22.31
2023-08-24T08:57:41.338Z,22.44
2023-08-24T09:00:14.015Z,22.49
2023-08-24T09:02:45.543Z,22.54
2023-08-24T09:05:13.680Z,22.59
2023-08-24T09:07:41.657Z,22.63
2023-08-24T09:10:09.612Z,22.66
2023-08-24T09:12:37.344Z,22.63
2023-08-24T09:15:08.797Z,22.57
2023-08-24T09:17:36.460Z,22.52
2023-08-24T09:20:08.339Z,22.52
2023-08-24T09:22:40.833Z,22.55
2023-08-24T09:25:11.310Z,22.59
2023-08-24T09:27:39.350Z,22.65
2023-08-24T09:30:08.350Z,22.70
2023-08-24T09:32:36.475Z,22.76
2023-08-24T09:35:09.166Z,22.82
2023-08-24T09:37:37.923Z,22.92
2023-08-24T09:40:08.834Z,23.06
2023-08-24T09:42:42.811Z,23.24
2023-08-24T09:45:15.058Z,23.49
2023-08-24T09:47:47.739Z,23.77
2023-08-24T09:50:15.648Z,24.05
2023-08-24T09:52:44.153Z,24.32
2023-08-24T09:55:15.324Z,24.56
2023-08-24T09:57:43.705Z,24.75
2023-08-24T10:00:17.450Z,24.90
2023-08-24T10:02:55.165Z,25.03
2023-08-24T10:07:59.331Z,25.15
2023-08-24T10:10:29.426Z,25.20
2023-08-24T10:13:11.571Z,25.19
2023-08-24T10:15:47.378Z,25.13
2023-08-24T10:18:17.677Z,25.02
2023-08-24T10:20:46.773Z,25.01
2023-08-24T10:23:16.830Z,25.09
2023-08-24T10:25:46.778Z,25.30
2023-08-24T10:28:17.428Z,25.52
2023-08-24T10:30:46.872Z,25.65
2023-08-24T10:33:16.585Z,25.74
2023-08-24T10:35:46.284Z,25.69
2023-08-24T10:38:34.883Z,25.65
2023-08-24T10:41:05.306Z,25.65
2023-08-24T10:43:38.274Z,25.60
2023-08-24T10:46:12.888Z,25.52
2023-08-24T10:48:43.460Z,25.46
2023-08-24T10:51:27.779Z,25.48
2023-08-24T10:54:03.906Z,25.49
2023-08-24T10:56:39.984Z,25.48
2023-08-24T10:59:14.029Z,25.50
2023-08-24T11:01:43.633Z,25.44
2023-08-24T11:04:12.464Z,25.40
2023-08-24T11:06:57.281Z,25.46
2023-08-24T11:09:25.517Z,25.54
2023-08-24T11:12:06.993Z,25.66
2023-08-24T11:14:52.520Z,25.71
2023-08-24T11:17:22.574Z,25.74
2023-08-24T11:19:51.778Z,25.76
2023-08-24T11:22:19.680Z,25.81
2023-08-24T11:24:48.024Z,25.86
2023-08-24T11:27:17.186Z,25.89
2023-08-24T11:29:44.992Z,25.99
2023-08-24T11:32:12.807Z,25.99
2023-08-24T11:34:40.630Z,25.95
2023-08-24T11:37:19.761Z,26.03
2023-08-24T11:39:47.352Z,26.20
2023-08-24T11:42:15.195Z,26.26
2023-08-24T11:44:50.467Z,26.29
2023-08-24T11:47:21.368Z,26.22
2023-08-24T11:49:49.286Z,26.10
2023-08-24T11:52:18.326Z,26.06
2023-08-24T11:54:46.730Z,26.08
2023-08-24T11:57:14.492Z,26.12
2023-08-24T11:59:43.161Z,26.16
2023-08-24T12:02:12.280Z,26.27
2023-08-24T12:04:40.957Z,26.46
2023-08-24T12:07:12.881Z,26.74
2023-08-24T12:09:41.541Z,26.89
2023-08-24T12:12:16.774Z,26.84
2023-08-24T12:14:46.096Z,26.63
2023-08-24T12:17:14.772Z,26.47
2023-08-24T12:20:03.145Z,26.43
2023-08-24T12:22:30.773Z,26.41
2023-08-24T12:24:58.719Z,26.47
2023-08-24T12:27:28.374Z,26.60
2023-08-24T12:30:01.927Z,26.89
2023-08-24T12:32:45.219Z,27.27
2023-08-24T12:35:16.626Z,27.56
2023-08-24T12:37:44.757Z,27.75
2023-08-24T12:40:13.766Z,28.00
2023-08-24T12:42:41.657Z,28.53
2023-08-24T12:45:09.621Z,29.06
2023-08-24T12:47:39.010Z,29.63
2023-08-24T12:50:07.602Z,30.41
2023-08-24T12:52:35.158Z,31.34
2023-08-24T12:55:04.466Z,32.22
2023-08-24T12:57:32.078Z,32.54
2023-08-24T13:00:00.761Z,32.45
2023-08-24T13:02:37.140Z,32.00
2023-08-24T13:05:07.788Z,31.72
2023-08-24T13:07:36.476Z,31.43
2023-08-24T13:10:05.844Z,31.01
2023-08-24T13:12:35.313Z,30.64
2023-08-24T13:15:03.980Z,31.05
2023-08-24T13:17:32.019Z,32.25
2023-08-24T13:19:59.830Z,32.86
2023-08-24T13:22:27.588Z,33.76
2023-08-24T13:24:55.392Z,33.87
2023-08-24T13:27:22.982Z,33.40
2023-08-24T13:29:50.825Z,32.90
2023-08-24T13:32:19.802Z,32.13
2023-08-24T13:34:47.418Z,31.48
2023-08-24T13:37:15.066Z,30.82
2023-08-24T13:39:42.729Z,30.62
2023-08-24T13:42:10.295Z,31.37
2023-08-24T13:44:38.742Z,32.14
2023-08-24T13:47:07.296Z,32.66
2023-08-24T13:49:40.456Z,34.26
2023-08-24T13:52:09.326Z,36.16
2023-08-24T13:54:37.079Z,37.82
2023-08-24T13:57:04.818Z,39.48
2023-08-24T13:59:33.591Z,40.81
2023-08-24T14:02:01.314Z,40.96
2023-08-24T14:04:28.958Z,39.84
2023-08-24T14:06:56.644Z,39.46
2023-08-24T14:09:24.198Z,39.94
2023-08-24T14:11:51.750Z,40.50
2023-08-24T14:14:19.447Z,40.85
2023-08-24T14:16:48.866Z,40.69
2023-08-24T14:19:16.872Z,41.11
2023-08-24T14:21:45.674Z,41.65
2023-08-24T14:24:13.471Z,41.30
2023-08-24T14:26:46.350Z,40.15
2023-08-24T14:29:15.389Z,38.98
2023-08-24T14:31:43.290Z,37.97
2023-08-24T14:34:11.060Z,37.25
2023-08-24T14:36:38.640Z,36.61
2023-08-24T14:39:06.307Z,35.72
2023-08-24T14:41:34.066Z,34.77
2023-08-24T14:44:02.584Z,33.86
2023-08-24T14:46:30.277Z,33.37
2023-08-24T14:48:58.113Z,32.99
2023-08-24T14:51:25.831Z,32.40
2023-08-24T14:53:53.382Z,31.93
2023-08-24T14:56:21.764Z,31.48
2023-08-24T14:58:49.392Z,30.99
2023-08-24T15:01:17.289Z,30.55
2023-08-24T15:03:44.941Z,30.87
2023-08-24T15:06:12.578Z,32.20
2023-08-24T15:08:42.115Z,33.70
2023-08-24T15:11:09.832Z,34.93
2023-08-24T15:13:39.108Z,35.55
2023-08-24T15:16:06.714Z,35.22
2023-08-24T15:18:34.409Z,34.29
2023-08-24T15:21:02.483Z,34.02
2023-08-24T15:23:32.018Z,34.75
2023-08-24T15:26:01.443Z,35.70
2023-08-24T15:29:02.066Z,36.76
2023-08-24T15:31:29.794Z,37.83
2023-08-24T15:33:57.536Z,38.57
2023-08-24T15:36:25.195Z,39.13
2023-08-24T15:38:52.799Z,39.33
2023-08-24T15:41:20.480Z,38.59
2023-08-24T15:43:48.064Z,37.57
2023-08-24T15:46:16.127Z,36.49
2023-08-24T15:48:44.144Z,35.58
2023-08-24T15:51:12.103Z,34.81
2023-08-24T15:53:40.064Z,34.13
2023-08-24T15:56:07.681Z,33.53
2023-08-24T15:58:35.530Z,32.84
2023-08-24T16:01:04.258Z,32.30
2023-08-24T16:03:32.234Z,32.43
2023-08-24T16:05:59.927Z,32.88
2023-08-24T16:08:28.212Z,33.42
2023-08-24T16:10:58.854Z,33.95
2023-08-24T16:13:26.859Z,34.37
2023-08-24T16:15:54.429Z,34.62
2023-08-24T16:18:25.726Z,34.30
2023-08-24T16:20:53.872Z,33.73
2023-08-24T16:23:21.524Z,33.13
2023-08-24T16:25:49.489Z,32.62
2023-08-24T16:28:17.172Z,32.12
2023-08-24T16:30:48.476Z,31.64
2023-08-24T16:33:18.620Z,31.25
2023-08-24T16:35:47.783Z,30.93
2023-08-24T16:38:16.497Z,30.67
2023-08-24T16:40:47.039Z,30.36
2023-08-24T16:43:14.704Z,29.97
2023-08-24T16:45:42.353Z,29.55
2023-08-24T16:48:10.051Z,29.16
2023-08-24T16:50:37.775Z,28.77
2023-08-24T16:53:05.539Z,28.40
2023-08-24T16:55:33.130Z,28.15
2023-08-24T16:58:00.859Z,27.94
2023-08-24T17:00:28.791Z,27.69
2023-08-24T17:02:56.674Z,27.48
2023-08-24T17:05:24.433Z,27.25
2023-08-24T17:08:09.206Z,27.02
2023-08-24T17:10:40.158Z,26.79
2023-08-24T17:13:08.225Z,26.55
2023-08-24T17:15:35.921Z,26.30
2023-08-24T17:18:04.346Z,26.07
2023-08-24T17:20:39.422Z,25.86
2023-08-24T17:23:07.276Z,25.66
2023-08-24T17:25:34.916Z,25.47
2023-08-24T17:28:02.551Z,25.31
2023-08-24T17:30:30.394Z,25.14
2023-08-24T17:32:59.880Z,24.98
2023-08-24T17:35:29.777Z,24.82
2023-08-24T17:37:58.468Z,24.66
2023-08-24T17:40:26.348Z,24.52
2023-08-24T17:42:54.236Z,24.36
2023-08-24T17:45:24.507Z,24.21
2023-08-24T17:47:52.799Z,24.04
2023-08-24T17:50:20.958Z,23.84
2023-08-24T17:52:48.744Z,23.64
2023-08-24T17:55:16.464Z,23.49
2023-08-24T17:57:44.241Z,23.35
2023-08-24T18:00:12.520Z,23.22
2023-08-24T18:02:42.243Z,23.08
2023-08-24T18:05:10.113Z,22.92
2023-08-24T18:07:37.799Z,22.77
2023-08-24T18:10:05.953Z,22.64
2023-08-24T18:12:33.563Z,22.54
2023-08-24T18:15:01.144Z,22.44
2023-08-24T18:17:28.901Z,22.34
2023-08-24T18:19:56.634Z,22.25
2023-08-24T18:22:24.267Z,22.18
2023-08-24T18:24:51.838Z,22.08
2023-08-24T18:27:19.552Z,21.99
2023-08-24T18:29:47.372Z,21.90
2023-08-24T18:32:14.906Z,21.79
2023-08-24T18:34:42.482Z,21.70
2023-08-24T18:37:11.684Z,21.61
2023-08-24T18:39:39.535Z,21.51
2023-08-24T18:42:07.420Z,21.44
2023-08-24T18:44:35.290Z,21.37
2023-08-24T18:47:06.035Z,21.29
2023-08-24T18:49:33.727Z,21.23
2023-08-24T18:52:01.751Z,21.16
2023-08-24T18:54:30.982Z,21.09
2023-08-24T18:57:00.239Z,21.02
2023-08-24T18:59:28.740Z,20.95
2023-08-24T19:01:56.353Z,20.90
2023-08-24T19:04:24.154Z,20.85
2023-08-24T19:06:53.389Z,20.79
2023-08-24T19:09:21.049Z,20.73
2023-08-24T19:11:48.851Z,20.67
2023-08-24T19:14:16.618Z,20.62
2023-08-24T19:16:45.242Z,20.56
2023-08-24T19:19:12.809Z,20.49
2023-08-24T19:21:40.393Z,20.42
2023-08-24T19:24:10.958Z,20.37
2023-08-24T19:26:38.611Z,20.31
2023-08-24T19:29:08.170Z,20.25
2023-08-24T19:31:36.115Z,20.19
2023-08-24T19:34:04.316Z,20.11
2023-08-24T19:36:31.901Z,20.04
2023-08-24T19:38:59.466Z,19.97
2023-08-24T19:41:27.129Z,19.90
2023-08-24T19:43:54.816Z,19.84
2023-08-24T19:46:22.454Z,19.77
2023-08-24T19:48:50.171Z,19.73
2023-08-24T19:51:17.815Z,19.68
2023-08-24T19:53:45.473Z,19.63
2023-08-24T19:56:13.107Z,19.62
2023-08-24T19:58:40.767Z,19.59
2023-08-24T20:01:08.694Z,19.56
2023-08-24T20:03:36.569Z,19.52
2023-08-24T20:06:19.797Z,19.47
2023-08-24T20:08:47.655Z,19.40
2023-08-24T20:11:15.833Z,19.33
2023-08-24T20:13:43.971Z,19.26
2023-08-24T20:16:11.772Z,19.18
2023-08-24T20:18:40.689Z,19.08
2023-08-24T20:21:09.831Z,18.99
2023-08-24T20:23:41.159Z,18.92
2023-08-24T20:26:14.020Z,18.87
2023-08-24T20:28:41.995Z,18.82
2023-08-24T20:31:10.438Z,18.79
2023-08-24T20:33:39.228Z,18.80
2023-08-24T20:36:06.885Z,18.80
2023-08-24T20:38:34.621Z,18.81
2023-08-24T20:41:04.065Z,18.83
2023-08-24T20:43:31.914Z,18.81
2023-08-24T20:45:59.884Z,18.79
2023-08-24T20:48:27.516Z,18.78
2023-08-24T20:50:59.644Z,18.75
2023-08-24T20:53:27.362Z,18.70
2023-08-24T20:55:55.700Z,18.66
2023-08-24T20:58:23.409Z,18.62
2023-08-24T21:00:53.421Z,18.60
2023-08-24T21:03:21.352Z,18.59
2023-08-24T21:05:49.506Z,18.57
2023-08-24T21:08:17.195Z,18.55
2023-08-24T21:10:44.883Z,18.52
2023-08-24T21:13:12.918Z,18.50
2023-08-24T21:15:40.486Z,18.48
2023-08-24T21:18:08.530Z,18.47
2023-08-24T21:20:36.340Z,18.49
2023-08-24T21:23:04.691Z,18.51
2023-08-24T21:25:32.759Z,18.51
2023-08-24T21:28:00.571Z,18.49
2023-08-24T21:30:28.312Z,18.44
2023-08-24T21:32:56.326Z,18.38
2023-08-24T21:35:24.046Z,18.35
2023-08-24T21:37:51.919Z,18.32
2023-08-24T21:40:23.281Z,18.30
2023-08-24T21:42:51.163Z,18.31
2023-08-24T21:45:19.223Z,18.31
2023-08-24T21:47:47.075Z,18.32
2023-08-24T21:50:14.775Z,18.29
2023-08-24T21:52:42.445Z,18.25
2023-08-24T21:55:10.140Z,18.21
2023-08-24T21:57:37.797Z,18.19
2023-08-24T22:00:06.577Z,18.15
2023-08-24T22:02:34.184Z,18.11
2023-08-24T22:05:02.055Z,18.10
2023-08-24T22:07:29.726Z,18.10
2023-08-24T22:09:57.534Z,18.12
2023-08-24T22:12:25.298Z,18.15
2023-08-24T22:14:52.910Z,18.17
2023-08-24T22:17:20.540Z,18.19
2023-08-24T22:19:48.277Z,18.19
2023-08-24T22:22:15.988Z,18.20
2023-08-24T22:24:43.729Z,18.21
2023-08-24T22:27:11.315Z,18.20
2023-08-24T22:29:39.052Z,18.19
2023-08-24T22:32:10.633Z,18.17
2023-08-24T22:34:39.225Z,18.13
2023-08-24T22:37:06.852Z,18.10
2023-08-24T22:39:34.532Z,18.07
2023-08-24T22:42:02.100Z,18.04
2023-08-24T22:44:29.711Z,18.01
2023-08-24T22:46:57.771Z,17.99
2023-08-24T22:49:25.384Z,17.99
2023-08-24T22:51:52.984Z,18.00
2023-08-24T22:54:20.594Z,18.00
2023-08-24T22:56:48.350Z,18.01
2023-08-24T22:59:15.988Z,17.97
2023-08-24T23:01:43.990Z,17.91
2023-08-24T23:04:11.727Z,17.83
2023-08-24T23:07:06.475Z,17.74
2023-08-24T23:09:36.880Z,17.64
2023-08-24T23:12:05.121Z,17.57
2023-08-24T23:14:35.149Z,17.52
2023-08-24T23:17:03.796Z,17.50
2023-08-24T23:19:35.264Z,17.49
2023-08-24T23:22:03.937Z,17.47
2023-08-24T23:24:49.143Z,17.48
2023-08-24T23:27:18.934Z,17.50
2023-08-24T23:29:47.549Z,17.49
2023-08-24T23:32:17.407Z,17.49
2023-08-24T23:34:45.446Z,17.51
2023-08-24T23:37:13.231Z,17.52
2023-08-24T23:39:41.038Z,17.52
2023-08-24T23:42:08.769Z,17.51
2023-08-24T23:44:36.426Z,17.46
2023-08-24T23:47:04.398Z,17.43
2023-08-24T23:49:32.001Z,17.39
2023-08-24T23:51:59.596Z,17.34
2023-08-24T23:54:27.665Z,17.32
2023-08-24T23:56:55.249Z,17.29
2023-08-24T23:59:23.217Z,17.27
